sensor_id;sensor_type;location;lat;lon;timestamp;temperature;humidity
67354;SHT30;54238;52.278;21.056;2023-10-19T00:01:18;5.89;70.36
67354;SHT30;54238;52.278;21.056;2023-10-19T00:03:53;5.96;70.36
67354;SHT30;54238;52.278;21.056;2023-10-19T00:06:25;5.98;70.21
67354;SHT30;54238;52.278;21.056;2023-10-19T00:08:55;5.99;70.07
67354;SHT30;54238;52.278;21.056;2023-10-19T00:11:24;6.02;70.16
67354;SHT30;54238;52.278;21.056;2023-10-19T00:13:53;6.04;70.17
67354;SHT30;54238;52.278;21.056;2023-10-19T00:16:24;6.07;70.13
67354;SHT30;54238;52.278;21.056;2023-10-19T00:18:59;6.07;70.09
67354;SHT30;54238;52.278;21.056;2023-10-19T00:21:30;6.08;70.05
67354;SHT30;54238;52.278;21.056;2023-10-19T00:24:03;6.06;70.01
67354;SHT30;54238;52.278;21.056;2023-10-19T00:26:33;6.05;70.03
67354;SHT30;54238;52.278;21.056;2023-10-19T00:29:03;6.02;70.07
67354;SHT30;54238;52.278;21.056;2023-10-19T00:31:50;6.02;70.10
67354;SHT30;54238;52.278;21.056;2023-10-19T00:34:24;6.00;70.10
67354;SHT30;54238;52.278;21.056;2023-10-19T00:36:56;6.01;70.09
67354;SHT30;54238;52.278;21.056;2023-10-19T00:39:26;6.01;70.09
67354;SHT30;54238;52.278;21.056;2023-10-19T00:41:54;6.00;70.06
67354;SHT30;54238;52.278;21.056;2023-10-19T00:44:26;5.99;70.06
67354;SHT30;54238;52.278;21.056;2023-10-19T00:47:08;6.00;69.98
67354;SHT30;54238;52.278;21.056;2023-10-19T00:49:42;5.98;69.91
67354;SHT30;54238;52.278;21.056;2023-10-19T00:52:10;5.95;69.87
67354;SHT30;54238;52.278;21.056;2023-10-19T00:54:39;5.94;69.94
67354;SHT30;54238;52.278;21.056;2023-10-19T00:57:15;5.92;69.98
67354;SHT30;54238;52.278;21.056;2023-10-19T00:59:47;5.91;69.90
67354;SHT30;54238;52.278;21.056;2023-10-19T01:02:18;5.88;70.02
67354;SHT30;54238;52.278;21.056;2023-10-19T01:04:53;5.86;70.06
67354;SHT30;54238;52.278;21.056;2023-10-19T01:07:47;5.81;70.03
67354;SHT30;54238;52.278;21.056;2023-10-19T01:10:26;5.78;70.07
67354;SHT30;54238;52.278;21.056;2023-10-19T01:12:59;5.76;70.04
67354;SHT30;54238;52.278;21.056;2023-10-19T01:15:33;5.76;70.07
67354;SHT30;54238;52.278;21.056;2023-10-19T01:18:06;5.75;70.01
67354;SHT30;54238;52.278;21.056;2023-10-19T01:20:40;5.74;69.96
67354;SHT30;54238;52.278;21.056;2023-10-19T01:23:24;5.73;69.94
67354;SHT30;54238;52.278;21.056;2023-10-19T01:25:59;5.73;69.81
67354;SHT30;54238;52.278;21.056;2023-10-19T01:28:35;5.71;69.75
67354;SHT30;54238;52.278;21.056;2023-10-19T01:31:08;5.69;69.72
67354;SHT30;54238;52.278;21.056;2023-10-19T01:33:59;5.68;69.79
67354;SHT30;54238;52.278;21.056;2023-10-19T01:36:35;5.66;69.73
67354;SHT30;54238;52.278;21.056;2023-10-19T01:39:11;5.64;69.76
67354;SHT30;54238;52.278;21.056;2023-10-19T01:41:39;5.59;69.77
67354;SHT30;54238;52.278;21.056;2023-10-19T01:44:08;5.60;69.83
67354;SHT30;54238;52.278;21.056;2023-10-19T01:46:39;5.59;69.79
67354;SHT30;54238;52.278;21.056;2023-10-19T01:49:09;5.54;69.72
67354;SHT30;54238;52.278;21.056;2023-10-19T01:51:37;5.45;69.64
67354;SHT30;54238;52.278;21.056;2023-10-19T01:54:09;5.39;69.70
67354;SHT30;54238;52.278;21.056;2023-10-19T01:56:39;5.33;69.65
67354;SHT30;54238;52.278;21.056;2023-10-19T01:59:08;5.28;69.76
67354;SHT30;54238;52.278;21.056;2023-10-19T02:01:35;5.21;69.76
67354;SHT30;54238;52.278;21.056;2023-10-19T02:04:07;5.20;69.87
67354;SHT30;54238;52.278;21.056;2023-10-19T02:06:38;5.20;69.83
67354;SHT30;54238;52.278;21.056;2023-10-19T02:09:08;5.12;69.86
67354;SHT30;54238;52.278;21.056;2023-10-19T02:11:53;5.07;70.01
67354;SHT30;54238;52.278;21.056;2023-10-19T02:14:29;5.05;70.19
67354;SHT30;54238;52.278;21.056;2023-10-19T02:16:57;5.05;70.31
67354;SHT30;54238;52.278;21.056;2023-10-19T02:19:30;5.05;70.31
67354;SHT30;54238;52.278;21.056;2023-10-19T02:22:04;5.03;70.47
67354;SHT30;54238;52.278;21.056;2023-10-19T02:24:34;5.03;70.70
67354;SHT30;54238;52.278;21.056;2023-10-19T02:27:06;5.01;70.88
67354;SHT30;54238;52.278;21.056;2023-10-19T02:29:40;4.99;70.91
67354;SHT30;54238;52.278;21.056;2023-10-19T02:32:10;4.95;70.96
67354;SHT30;54238;52.278;21.056;2023-10-19T02:34:40;4.95;71.11
67354;SHT30;54238;52.278;21.056;2023-10-19T02:37:12;4.93;71.13
67354;SHT30;54238;52.278;21.056;2023-10-19T02:39:41;4.90;71.21
67354;SHT30;54238;52.278;21.056;2023-10-19T02:42:10;4.88;71.25
67354;SHT30;54238;52.278;21.056;2023-10-19T02:44:41;4.87;71.24
67354;SHT30;54238;52.278;21.056;2023-10-19T02:47:13;4.84;71.29
67354;SHT30;54238;52.278;21.056;2023-10-19T02:49:44;4.84;71.41
67354;SHT30;54238;52.278;21.056;2023-10-19T02:52:22;4.84;71.43
67354;SHT30;54238;52.278;21.056;2023-10-19T02:54:54;4.84;71.40
67354;SHT30;54238;52.278;21.056;2023-10-19T02:57:24;4.84;71.38
67354;SHT30;54238;52.278;21.056;2023-10-19T02:59:57;4.84;71.40
67354;SHT30;54238;52.278;21.056;2023-10-19T03:02:33;4.84;71.37
67354;SHT30;54238;52.278;21.056;2023-10-19T03:05:05;4.86;71.39
67354;SHT30;54238;52.278;21.056;2023-10-19T03:07:41;4.86;71.38
67354;SHT30;54238;52.278;21.056;2023-10-19T03:10:15;4.87;71.37
67354;SHT30;54238;52.278;21.056;2023-10-19T03:13:01;4.89;71.34
67354;SHT30;54238;52.278;21.056;2023-10-19T03:15:33;4.87;71.20
67354;SHT30;54238;52.278;21.056;2023-10-19T03:18:05;4.84;71.18
67354;SHT30;54238;52.278;21.056;2023-10-19T03:20:37;4.80;71.23
67354;SHT30;54238;52.278;21.056;2023-10-19T03:23:07;4.79;71.30
67354;SHT30;54238;52.278;21.056;2023-10-19T03:25:37;4.79;71.36
67354;SHT30;54238;52.278;21.056;2023-10-19T03:28:44;4.78;71.27
67354;SHT30;54238;52.278;21.056;2023-10-19T03:31:26;4.80;71.29
67354;SHT30;54238;52.278;21.056;2023-10-19T03:33:56;4.80;71.28
67354;SHT30;54238;52.278;21.056;2023-10-19T03:36:32;4.82;71.20
67354;SHT30;54238;52.278;21.056;2023-10-19T03:39:04;4.78;71.23
67354;SHT30;54238;52.278;21.056;2023-10-19T03:41:51;4.74;71.16
67354;SHT30;54238;52.278;21.056;2023-10-19T03:44:19;4.71;71.27
67354;SHT30;54238;52.278;21.056;2023-10-19T03:46:51;4.70;71.38
67354;SHT30;54238;52.278;21.056;2023-10-19T03:49:25;4.72;71.31
67354;SHT30;54238;52.278;21.056;2023-10-19T03:52:00;4.68;71.23
67354;SHT30;54238;52.278;21.056;2023-10-19T03:54:53;4.64;71.32
67354;SHT30;54238;52.278;21.056;2023-10-19T03:57:23;4.63;71.28
67354;SHT30;54238;52.278;21.056;2023-10-19T04:00:01;4.62;71.20
67354;SHT30;54238;52.278;21.056;2023-10-19T04:02:33;4.62;71.21
67354;SHT30;54238;52.278;21.056;2023-10-19T04:05:07;4.62;71.14
67354;SHT30;54238;52.278;21.056;2023-10-19T04:07:37;4.57;70.88
67354;SHT30;54238;52.278;21.056;2023-10-19T04:10:06;4.50;70.86
67354;SHT30;54238;52.278;21.056;2023-10-19T04:12:58;4.47;71.01
67354;SHT30;54238;52.278;21.056;2023-10-19T04:15:28;4.43;70.93
67354;SHT30;54238;52.278;21.056;2023-10-19T04:18:00;4.36;71.01
67354;SHT30;54238;52.278;21.056;2023-10-19T04:20:27;4.33;71.16
67354;SHT30;54238;52.278;21.056;2023-10-19T04:23:05;4.34;71.39
67354;SHT30;54238;52.278;21.056;2023-10-19T04:25:40;4.35;71.34
67354;SHT30;54238;52.278;21.056;2023-10-19T04:28:13;4.32;71.38
67354;SHT30;54238;52.278;21.056;2023-10-19T04:30:44;4.32;71.80
67354;SHT30;54238;52.278;21.056;2023-10-19T04:33:15;4.36;71.97
67354;SHT30;54238;52.278;21.056;2023-10-19T04:35:45;4.41;72.14
67354;SHT30;54238;52.278;21.056;2023-10-19T04:38:14;4.45;72.00
67354;SHT30;54238;52.278;21.056;2023-10-19T04:40:44;4.47;71.84
67354;SHT30;54238;52.278;21.056;2023-10-19T04:43:11;4.48;71.77
67354;SHT30;54238;52.278;21.056;2023-10-19T04:45:43;4.51;71.76
67354;SHT30;54238;52.278;21.056;2023-10-19T04:48:18;4.55;71.76
67354;SHT30;54238;52.278;21.056;2023-10-19T04:50:47;4.56;71.72
67354;SHT30;54238;52.278;21.056;2023-10-19T04:53:16;4.56;71.71
67354;SHT30;54238;52.278;21.056;2023-10-19T04:55:46;4.52;71.65
67354;SHT30;54238;52.278;21.056;2023-10-19T04:58:19;4.48;71.65
67354;SHT30;54238;52.278;21.056;2023-10-19T05:00:48;4.48;71.64
67354;SHT30;54238;52.278;21.056;2023-10-19T05:03:16;4.47;71.58
67354;SHT30;54238;52.278;21.056;2023-10-19T05:05:45;4.44;71.62
67354;SHT30;54238;52.278;21.056;2023-10-19T05:08:16;4.46;71.63
67354;SHT30;54238;52.278;21.056;2023-10-19T05:10:48;4.46;71.57
67354;SHT30;54238;52.278;21.056;2023-10-19T05:13:18;4.47;71.57
67354;SHT30;54238;52.278;21.056;2023-10-19T05:15:53;4.44;71.48
67354;SHT30;54238;52.278;21.056;2023-10-19T05:18:25;4.40;71.51
67354;SHT30;54238;52.278;21.056;2023-10-19T05:20:53;4.36;71.52
67354;SHT30;54238;52.278;21.056;2023-10-19T05:23:23;4.33;71.61
67354;SHT30;54238;52.278;21.056;2023-10-19T05:25:52;4.34;71.78
67354;SHT30;54238;52.278;21.056;2023-10-19T05:28:25;4.34;71.67
67354;SHT30;54238;52.278;21.056;2023-10-19T05:30:57;4.33;71.81
67354;SHT30;54238;52.278;21.056;2023-10-19T05:33:30;4.34;71.92
67354;SHT30;54238;52.278;21.056;2023-10-19T05:35:59;4.40;72.05
67354;SHT30;54238;52.278;21.056;2023-10-19T05:38:27;4.46;71.76
67354;SHT30;54238;52.278;21.056;2023-10-19T05:40:57;4.45;71.69
67354;SHT30;54238;52.278;21.056;2023-10-19T05:43:28;4.50;72.11
67354;SHT30;54238;52.278;21.056;2023-10-19T05:45:54;4.56;71.82
67354;SHT30;54238;52.278;21.056;2023-10-19T05:48:24;4.58;71.45
67354;SHT30;54238;52.278;21.056;2023-10-19T05:50:58;4.61;71.37
67354;SHT30;54238;52.278;21.056;2023-10-19T05:53:28;4.64;71.13
67354;SHT30;54238;52.278;21.056;2023-10-19T05:55:57;4.64;71.05
67354;SHT30;54238;52.278;21.056;2023-10-19T05:58:27;4.66;70.97
67354;SHT30;54238;52.278;21.056;2023-10-19T06:01:00;4.67;70.89
67354;SHT30;54238;52.278;21.056;2023-10-19T06:03:28;4.70;70.76
67354;SHT30;54238;52.278;21.056;2023-10-19T06:05:59;4.68;70.60
67354;SHT30;54238;52.278;21.056;2023-10-19T06:08:27;4.69;70.56
67354;SHT30;54238;52.278;21.056;2023-10-19T06:10:55;4.70;70.59
67354;SHT30;54238;52.278;21.056;2023-10-19T06:13:25;4.76;70.66
67354;SHT30;54238;52.278;21.056;2023-10-19T06:15:56;4.85;70.31
67354;SHT30;54238;52.278;21.056;2023-10-19T06:18:23;4.85;70.03
67354;SHT30;54238;52.278;21.056;2023-10-19T06:20:53;4.86;70.08
67354;SHT30;54238;52.278;21.056;2023-10-19T06:23:26;4.95;70.10
67354;SHT30;54238;52.278;21.056;2023-10-19T06:25:53;5.02;69.82
67354;SHT30;54238;52.278;21.056;2023-10-19T06:28:20;5.11;69.64
67354;SHT30;54238;52.278;21.056;2023-10-19T06:31:09;5.20;69.46
67354;SHT30;54238;52.278;21.056;2023-10-19T06:33:38;5.30;69.14
67354;SHT30;54238;52.278;21.056;2023-10-19T06:36:08;5.38;69.02
67354;SHT30;54238;52.278;21.056;2023-10-19T06:38:39;5.46;68.79
67354;SHT30;54238;52.278;21.056;2023-10-19T06:41:11;5.48;68.55
67354;SHT30;54238;52.278;21.056;2023-10-19T06:43:43;5.52;68.83
67354;SHT30;54238;52.278;21.056;2023-10-19T06:46:15;5.59;68.66
67354;SHT30;54238;52.278;21.056;2023-10-19T06:48:45;5.65;68.50
67354;SHT30;54238;52.278;21.056;2023-10-19T06:51:17;5.72;68.45
67354;SHT30;54238;52.278;21.056;2023-10-19T06:53:49;5.79;68.36
67354;SHT30;54238;52.278;21.056;2023-10-19T06:56:16;5.82;68.16
67354;SHT30;54238;52.278;21.056;2023-10-19T06:58:43;5.89;68.17
67354;SHT30;54238;52.278;21.056;2023-10-19T07:01:12;5.99;68.05
67354;SHT30;54238;52.278;21.056;2023-10-19T07:03:45;6.09;67.93
67354;SHT30;54238;52.278;21.056;2023-10-19T07:06:12;6.18;67.75
67354;SHT30;54238;52.278;21.056;2023-10-19T07:08:44;6.28;67.74
67354;SHT30;54238;52.278;21.056;2023-10-19T07:11:16;6.41;67.55
67354;SHT30;54238;52.278;21.056;2023-10-19T07:13:47;6.51;67.35
67354;SHT30;54238;52.278;21.056;2023-10-19T07:16:17;6.62;67.21
67354;SHT30;54238;52.278;21.056;2023-10-19T07:18:49;6.73;67.14
67354;SHT30;54238;52.278;21.056;2023-10-19T07:21:18;6.81;67.03
67354;SHT30;54238;52.278;21.056;2023-10-19T07:23:49;6.93;66.82
67354;SHT30;54238;52.278;21.056;2023-10-19T07:26:18;7.07;66.54
67354;SHT30;54238;52.278;21.056;2023-10-19T07:28:47;7.20;66.31
67354;SHT30;54238;52.278;21.056;2023-10-19T07:31:17;7.31;66.26
67354;SHT30;54238;52.278;21.056;2023-10-19T07:33:46;7.44;65.97
67354;SHT30;54238;52.278;21.056;2023-10-19T07:36:19;7.58;66.02
67354;SHT30;54238;52.278;21.056;2023-10-19T07:38:47;7.78;65.63
67354;SHT30;54238;52.278;21.056;2023-10-19T07:41:22;7.98;65.27
67354;SHT30;54238;52.278;21.056;2023-10-19T07:43:51;8.16;64.97
67354;SHT30;54238;52.278;21.056;2023-10-19T07:46:22;8.33;64.70
67354;SHT30;54238;52.278;21.056;2023-10-19T07:48:49;8.49;64.17
67354;SHT30;54238;52.278;21.056;2023-10-19T07:51:18;8.64;63.80
67354;SHT30;54238;52.278;21.056;2023-10-19T07:53:45;8.77;63.65
67354;SHT30;54238;52.278;21.056;2023-10-19T07:56:12;8.92;63.31
67354;SHT30;54238;52.278;21.056;2023-10-19T07:58:39;9.04;63.16
67354;SHT30;54238;52.278;21.056;2023-10-19T08:01:09;9.17;63.07
67354;SHT30;54238;52.278;21.056;2023-10-19T08:03:38;9.27;62.89
67354;SHT30;54238;52.278;21.056;2023-10-19T08:06:06;9.38;62.76
67354;SHT30;54238;52.278;21.056;2023-10-19T08:08:33;9.51;62.51
67354;SHT30;54238;52.278;21.056;2023-10-19T08:11:04;9.60;62.27
67354;SHT30;54238;52.278;21.056;2023-10-19T08:13:32;9.69;61.93
67354;SHT30;54238;52.278;21.056;2023-10-19T08:16:03;9.78;61.64
67354;SHT30;54238;52.278;21.056;2023-10-19T08:18:33;9.87;61.70
67354;SHT30;54238;52.278;21.056;2023-10-19T08:21:01;10.01;61.40
67354;SHT30;54238;52.278;21.056;2023-10-19T08:23:32;10.17;61.18
67354;SHT30;54238;52.278;21.056;2023-10-19T08:25:59;10.31;61.00
67354;SHT30;54238;52.278;21.056;2023-10-19T08:28:33;10.45;60.63
67354;SHT30;54238;52.278;21.056;2023-10-19T08:31:03;10.62;60.34
67354;SHT30;54238;52.278;21.056;2023-10-19T08:33:36;10.87;60.08
67354;SHT30;54238;52.278;21.056;2023-10-19T08:36:15;11.10;59.79
67354;SHT30;54238;52.278;21.056;2023-10-19T08:38:47;11.38;59.41
67354;SHT30;54238;52.278;21.056;2023-10-19T08:41:14;11.63;58.74
67354;SHT30;54238;52.278;21.056;2023-10-19T08:43:47;11.85;58.13
67354;SHT30;54238;52.278;21.056;2023-10-19T08:46:17;12.01;57.21
67354;SHT30;54238;52.278;21.056;2023-10-19T08:48:45;12.22;56.44
67354;SHT30;54238;52.278;21.056;2023-10-19T08:51:15;12.52;55.92
67354;SHT30;54238;52.278;21.056;2023-10-19T08:53:46;12.87;55.02
67354;SHT30;54238;52.278;21.056;2023-10-19T08:56:18;13.24;54.04
67354;SHT30;54238;52.278;21.056;2023-10-19T08:58:45;13.62;53.56
67354;SHT30;54238;52.278;21.056;2023-10-19T09:01:20;13.98;52.27
67354;SHT30;54238;52.278;21.056;2023-10-19T09:03:50;14.22;51.25
67354;SHT30;54238;52.278;21.056;2023-10-19T09:06:23;14.39;50.49
67354;SHT30;54238;52.278;21.056;2023-10-19T09:08:55;14.44;49.92
67354;SHT30;54238;52.278;21.056;2023-10-19T09:11:27;14.44;49.37
67354;SHT30;54238;52.278;21.056;2023-10-19T09:13:58;14.43;48.96
67354;SHT30;54238;52.278;21.056;2023-10-19T09:16:27;14.44;48.95
67354;SHT30;54238;52.278;21.056;2023-10-19T09:19:00;14.47;48.34
67354;SHT30;54238;52.278;21.056;2023-10-19T09:21:30;14.51;48.49
67354;SHT30;54238;52.278;21.056;2023-10-19T09:24:06;14.65;48.51
67354;SHT30;54238;52.278;21.056;2023-10-19T09:26:38;14.80;47.93
67354;SHT30;54238;52.278;21.056;2023-10-19T09:29:08;15.04;47.54
67354;SHT30;54238;52.278;21.056;2023-10-19T09:31:45;15.24;46.59
67354;SHT30;54238;52.278;21.056;2023-10-19T09:34:15;15.32;45.72
67354;SHT30;54238;52.278;21.056;2023-10-19T09:36:44;15.29;45.40
67354;SHT30;54238;52.278;21.056;2023-10-19T09:39:16;15.24;45.52
67354;SHT30;54238;52.278;21.056;2023-10-19T09:41:45;15.13;45.30
67354;SHT30;54238;52.278;21.056;2023-10-19T09:44:14;15.01;45.45
67354;SHT30;54238;52.278;21.056;2023-10-19T09:46:52;14.91;45.49
67354;SHT30;54238;52.278;21.056;2023-10-19T09:49:36;14.92;45.45
67354;SHT30;54238;52.278;21.056;2023-10-19T09:52:05;14.98;45.52
67354;SHT30;54238;52.278;21.056;2023-10-19T09:54:57;14.97;45.55
67354;SHT30;54238;52.278;21.056;2023-10-19T09:57:34;15.01;45.04
67354;SHT30;54238;52.278;21.056;2023-10-19T10:00:09;15.01;44.93
67354;SHT30;54238;52.278;21.056;2023-10-19T10:02:51;15.12;45.00
67354;SHT30;54238;52.278;21.056;2023-10-19T10:10:53;15.79;43.98
67354;SHT30;54238;52.278;21.056;2023-10-19T10:15:54;15.68;43.70
67354;SHT30;54238;52.278;21.056;2023-10-19T10:18:24;15.54;43.86
67354;SHT30;54238;52.278;21.056;2023-10-19T10:23:40;15.54;43.80
67354;SHT30;54238;52.278;21.056;2023-10-19T10:26:14;15.47;43.54
67354;SHT30;54238;52.278;21.056;2023-10-19T10:28:47;15.23;43.52
67354;SHT30;54238;52.278;21.056;2023-10-19T10:31:40;14.97;43.99
67354;SHT30;54238;52.278;21.056;2023-10-19T10:34:10;14.81;44.64
67354;SHT30;54238;52.278;21.056;2023-10-19T10:37:06;14.67;44.79
67354;SHT30;54238;52.278;21.056;2023-10-19T10:39:38;14.56;45.12
67354;SHT30;54238;52.278;21.056;2023-10-19T10:42:16;14.46;45.53
67354;SHT30;54238;52.278;21.056;2023-10-19T10:44:46;14.37;45.73
67354;SHT30;54238;52.278;21.056;2023-10-19T10:47:22;14.30;45.73
67354;SHT30;54238;52.278;21.056;2023-10-19T10:49:59;14.24;45.59
67354;SHT30;54238;52.278;21.056;2023-10-19T10:52:33;14.15;45.59
67354;SHT30;54238;52.278;21.056;2023-10-19T10:55:09;14.08;45.90
67354;SHT30;54238;52.278;21.056;2023-10-19T10:57:46;14.02;46.20
67354;SHT30;54238;52.278;21.056;2023-10-19T11:00:13;13.98;46.46
67354;SHT30;54238;52.278;21.056;2023-10-19T11:02:59;13.95;46.65
67354;SHT30;54238;52.278;21.056;2023-10-19T11:05:27;13.93;46.86
67354;SHT30;54238;52.278;21.056;2023-10-19T11:08:07;13.89;46.98
67354;SHT30;54238;52.278;21.056;2023-10-19T11:10:49;13.82;47.08
67354;SHT30;54238;52.278;21.056;2023-10-19T11:13:17;13.77;47.12
67354;SHT30;54238;52.278;21.056;2023-10-19T11:15:55;13.73;47.32
67354;SHT30;54238;52.278;21.056;2023-10-19T11:18:30;13.73;47.38
67354;SHT30;54238;52.278;21.056;2023-10-19T11:21:00;13.77;47.46
67354;SHT30;54238;52.278;21.056;2023-10-19T11:23:36;13.86;47.53
67354;SHT30;54238;52.278;21.056;2023-10-19T11:26:10;14.00;47.58
67354;SHT30;54238;52.278;21.056;2023-10-19T11:28:45;14.16;47.48
67354;SHT30;54238;52.278;21.056;2023-10-19T11:31:20;14.20;47.08
67354;SHT30;54238;52.278;21.056;2023-10-19T11:33:54;14.18;47.05
67354;SHT30;54238;52.278;21.056;2023-10-19T11:36:25;14.18;47.05
67354;SHT30;54238;52.278;21.056;2023-10-19T11:38:54;14.22;47.37
67354;SHT30;54238;52.278;21.056;2023-10-19T11:41:22;14.28;47.47
67354;SHT30;54238;52.278;21.056;2023-10-19T11:43:52;14.30;47.34
67354;SHT30;54238;52.278;21.056;2023-10-19T11:46:21;14.30;47.19
67354;SHT30;54238;52.278;21.056;2023-10-19T11:48:51;14.28;47.05
67354;SHT30;54238;52.278;21.056;2023-10-19T11:51:18;14.23;46.74
67354;SHT30;54238;52.278;21.056;2023-10-19T11:53:50;14.16;46.79
67354;SHT30;54238;52.278;21.056;2023-10-19T11:56:22;14.07;46.63
67354;SHT30;54238;52.278;21.056;2023-10-19T11:58:51;13.98;46.72
67354;SHT30;54238;52.278;21.056;2023-10-19T12:01:28;13.90;47.01
67354;SHT30;54238;52.278;21.056;2023-10-19T12:03:56;13.87;47.09
67354;SHT30;54238;52.278;21.056;2023-10-19T12:06:29;13.81;47.01
67354;SHT30;54238;52.278;21.056;2023-10-19T12:08:56;13.75;47.08
67354;SHT30;54238;52.278;21.056;2023-10-19T12:11:41;13.70;47.33
67354;SHT30;54238;52.278;21.056;2023-10-19T12:14:14;13.68;47.63
67354;SHT30;54238;52.278;21.056;2023-10-19T12:16:47;13.71;47.72
67354;SHT30;54238;52.278;21.056;2023-10-19T12:19:19;13.70;47.42
67354;SHT30;54238;52.278;21.056;2023-10-19T12:21:53;13.67;47.36
67354;SHT30;54238;52.278;21.056;2023-10-19T12:24:21;13.64;47.53
67354;SHT30;54238;52.278;21.056;2023-10-19T12:26:50;13.61;47.72
67354;SHT30;54238;52.278;21.056;2023-10-19T12:29:22;13.63;47.84
67354;SHT30;54238;52.278;21.056;2023-10-19T12:31:52;13.62;47.88
67354;SHT30;54238;52.278;21.056;2023-10-19T12:34:22;13.59;47.99
67354;SHT30;54238;52.278;21.056;2023-10-19T12:36:54;13.56;48.14
67354;SHT30;54238;52.278;21.056;2023-10-19T12:39:25;13.55;48.31
67354;SHT30;54238;52.278;21.056;2023-10-19T12:42:14;13.53;48.39
67354;SHT30;54238;52.278;21.056;2023-10-19T12:44:41;13.50;48.44
67354;SHT30;54238;52.278;21.056;2023-10-19T12:47:12;13.47;48.45
67354;SHT30;54238;52.278;21.056;2023-10-19T12:49:43;13.43;48.78
67354;SHT30;54238;52.278;21.056;2023-10-19T12:52:20;13.38;48.90
67354;SHT30;54238;52.278;21.056;2023-10-19T12:54:51;13.30;49.13
67354;SHT30;54238;52.278;21.056;2023-10-19T12:57:27;13.24;49.29
67354;SHT30;54238;52.278;21.056;2023-10-19T12:59:54;13.22;49.53
67354;SHT30;54238;52.278;21.056;2023-10-19T13:02:21;13.19;49.69
67354;SHT30;54238;52.278;21.056;2023-10-19T13:04:51;13.16;49.83
67354;SHT30;54238;52.278;21.056;2023-10-19T13:07:18;13.13;50.09
67354;SHT30;54238;52.278;21.056;2023-10-19T13:09:53;13.11;50.16
67354;SHT30;54238;52.278;21.056;2023-10-19T13:12:25;13.09;50.23
67354;SHT30;54238;52.278;21.056;2023-10-19T13:14:51;13.06;50.25
67354;SHT30;54238;52.278;21.056;2023-10-19T13:17:22;13.02;50.39
67354;SHT30;54238;52.278;21.056;2023-10-19T13:19:53;12.96;50.54
67354;SHT30;54238;52.278;21.056;2023-10-19T13:22:24;12.90;50.75
67354;SHT30;54238;52.278;21.056;2023-10-19T13:24:52;12.87;50.98
67354;SHT30;54238;52.278;21.056;2023-10-19T13:27:27;12.82;50.91
67354;SHT30;54238;52.278;21.056;2023-10-19T13:29:58;12.79;50.92
67354;SHT30;54238;52.278;21.056;2023-10-19T13:32:28;12.76;51.00
67354;SHT30;54238;52.278;21.056;2023-10-19T13:35:02;12.73;51.23
67354;SHT30;54238;52.278;21.056;2023-10-19T13:37:30;12.71;51.27
67354;SHT30;54238;52.278;21.056;2023-10-19T13:40:00;12.70;51.49
67354;SHT30;54238;52.278;21.056;2023-10-19T13:42:27;12.68;51.55
67354;SHT30;54238;52.278;21.056;2023-10-19T13:44:59;12.67;51.55
67354;SHT30;54238;52.278;21.056;2023-10-19T13:47:29;12.66;51.68
67354;SHT30;54238;52.278;21.056;2023-10-19T13:50:00;12.64;51.83
67354;SHT30;54238;52.278;21.056;2023-10-19T13:52:28;12.63;51.88
67354;SHT30;54238;52.278;21.056;2023-10-19T13:54:58;12.62;52.02
67354;SHT30;54238;52.278;21.056;2023-10-19T13:57:25;12.63;52.09
67354;SHT30;54238;52.278;21.056;2023-10-19T13:59:56;12.62;52.10
67354;SHT30;54238;52.278;21.056;2023-10-19T14:02:30;12.59;52.08
67354;SHT30;54238;52.278;21.056;2023-10-19T14:04:59;12.59;52.23
67354;SHT30;54238;52.278;21.056;2023-10-19T14:07:27;12.59;52.31
67354;SHT30;54238;52.278;21.056;2023-10-19T14:09:58;12.59;52.41
67354;SHT30;54238;52.278;21.056;2023-10-19T14:12:32;12.59;52.50
67354;SHT30;54238;52.278;21.056;2023-10-19T14:15:02;12.57;52.47
67354;SHT30;54238;52.278;21.056;2023-10-19T14:17:35;12.57;52.58
67354;SHT30;54238;52.278;21.056;2023-10-19T14:20:05;12.60;52.75
67354;SHT30;54238;52.278;21.056;2023-10-19T14:22:39;12.60;52.86
67354;SHT30;54238;52.278;21.056;2023-10-19T14:25:16;12.62;52.99
67354;SHT30;54238;52.278;21.056;2023-10-19T14:27:47;12.62;52.90
67354;SHT30;54238;52.278;21.056;2023-10-19T14:30:22;12.61;53.06
67354;SHT30;54238;52.278;21.056;2023-10-19T14:32:51;12.61;52.96
67354;SHT30;54238;52.278;21.056;2023-10-19T14:35:23;12.59;52.92
67354;SHT30;54238;52.278;21.056;2023-10-19T14:37:55;12.57;52.88
67354;SHT30;54238;52.278;21.056;2023-10-19T14:40:27;12.56;53.01
67354;SHT30;54238;52.278;21.056;2023-10-19T14:42:57;12.55;53.09
67354;SHT30;54238;52.278;21.056;2023-10-19T14:45:27;12.51;53.05
67354;SHT30;54238;52.278;21.056;2023-10-19T14:47:59;12.47;53.11
67354;SHT30;54238;52.278;21.056;2023-10-19T14:50:30;12.40;53.20
67354;SHT30;54238;52.278;21.056;2023-10-19T14:52:59;12.34;53.27
67354;SHT30;54238;52.278;21.056;2023-10-19T14:55:28;12.30;53.28
67354;SHT30;54238;52.278;21.056;2023-10-19T14:57:58;12.27;53.48
67354;SHT30;54238;52.278;21.056;2023-10-19T15:00:29;12.22;53.65
67354;SHT30;54238;52.278;21.056;2023-10-19T15:03:02;12.19;53.65
67354;SHT30;54238;52.278;21.056;2023-10-19T15:05:36;12.17;53.71
67354;SHT30;54238;52.278;21.056;2023-10-19T15:08:05;12.13;53.87
67354;SHT30;54238;52.278;21.056;2023-10-19T15:10:42;12.11;54.06
67354;SHT30;54238;52.278;21.056;2023-10-19T15:13:11;12.08;54.23
67354;SHT30;54238;52.278;21.056;2023-10-19T15:15:41;12.07;54.40
67354;SHT30;54238;52.278;21.056;2023-10-19T15:18:10;12.04;54.44
67354;SHT30;54238;52.278;21.056;2023-10-19T15:20:41;12.03;54.51
67354;SHT30;54238;52.278;21.056;2023-10-19T15:23:08;12.01;54.60
67354;SHT30;54238;52.278;21.056;2023-10-19T15:25:40;11.98;54.69
67354;SHT30;54238;52.278;21.056;2023-10-19T15:28:07;11.95;54.82
67354;SHT30;54238;52.278;21.056;2023-10-19T15:30:40;11.93;54.89
67354;SHT30;54238;52.278;21.056;2023-10-19T15:33:14;11.91;54.87
67354;SHT30;54238;52.278;21.056;2023-10-19T15:35:43;11.90;54.96
67354;SHT30;54238;52.278;21.056;2023-10-19T15:38:21;11.89;54.98
67354;SHT30;54238;52.278;21.056;2023-10-19T15:40:55;11.88;54.97
67354;SHT30;54238;52.278;21.056;2023-10-19T15:43:22;11.85;55.10
67354;SHT30;54238;52.278;21.056;2023-10-19T15:45:49;11.83;55.11
67354;SHT30;54238;52.278;21.056;2023-10-19T15:48:34;11.81;55.20
67354;SHT30;54238;52.278;21.056;2023-10-19T15:51:06;11.80;55.16
67354;SHT30;54238;52.278;21.056;2023-10-19T15:53:39;11.78;55.22
67354;SHT30;54238;52.278;21.056;2023-10-19T15:56:06;11.75;55.29
67354;SHT30;54238;52.278;21.056;2023-10-19T15:58:39;11.71;55.41
67354;SHT30;54238;52.278;21.056;2023-10-19T16:01:08;11.70;55.39
67354;SHT30;54238;52.278;21.056;2023-10-19T16:03:41;11.69;55.40